createdAt,value
2023-01-01T00:01:30.540Z,32.23
2023-01-01T00:03:56.976Z,32.27
2023-01-01T00:06:23.300Z,32.27
2023-01-01T00:08:49.642Z,32.31
2023-01-01T00:11:16.024Z,32.33
2023-01-01T00:13:42.394Z,32.37
2023-01-01T00:16:08.885Z,32.37
2023-01-01T00:18:35.187Z,32.36
2023-01-01T00:21:01.596Z,32.37
2023-01-01T00:23:27.941Z,32.39
2023-01-01T00:25:54.359Z,32.39
2023-01-01T00:28:20.700Z,32.42
2023-01-01T00:30:47.122Z,32.47
2023-01-01T00:33:13.464Z,32.46
2023-01-01T00:35:39.852Z,32.47
2023-01-01T00:38:06.197Z,32.49
2023-01-01T00:40:32.620Z,32.57
2023-01-01T00:42:59.075Z,32.56
2023-01-01T00:45:25.537Z,32.59
2023-01-01T00:47:51.932Z,32.59
2023-01-01T00:50:18.298Z,32.62
2023-01-01T00:52:44.633Z,32.65
2023-01-01T00:55:11.046Z,32.68
2023-01-01T00:57:37.393Z,32.72
2023-01-01T01:00:03.816Z,32.72
2023-01-01T01:02:30.322Z,32.68
2023-01-01T01:04:56.576Z,32.75
2023-01-01T01:07:22.909Z,32.73
2023-01-01T01:09:49.329Z,32.78
2023-01-01T01:12:18.537Z,32.83
2023-01-01T01:14:42.090Z,32.89
2023-01-01T01:17:08.499Z,32.88
2023-01-01T01:19:34.806Z,32.88
2023-01-01T01:22:01.153Z,32.88
2023-01-01T01:24:27.537Z,32.87
2023-01-01T01:26:53.880Z,32.83
2023-01-01T01:29:20.295Z,32.85
2023-01-01T01:31:46.644Z,32.87
2023-01-01T01:34:16.185Z,32.89
2023-01-01T01:36:39.430Z,32.93
2023-01-01T01:39:05.822Z,32.89
2023-01-01T01:41:32.164Z,32.81
2023-01-01T01:43:58.574Z,32.89
2023-01-01T01:46:24.954Z,32.88
2023-01-01T01:48:51.319Z,32.88
2023-01-01T01:51:17.692Z,32.88
2023-01-01T01:53:44.075Z,32.90
2023-01-01T01:56:10.414Z,33.01
2023-01-01T01:58:36.832Z,32.99
2023-01-01T02:01:03.275Z,33.00
2023-01-01T02:03:29.633Z,33.07
2023-01-01T02:05:55.955Z,33.01
2023-01-01T02:08:22.336Z,33.12
2023-01-01T02:10:48.685Z,33.21
2023-01-01T02:13:15.069Z,33.20
2023-01-01T02:15:41.482Z,33.21
2023-01-01T02:18:07.846Z,33.20
2023-01-01T02:20:34.219Z,33.10
2023-01-01T02:23:04.260Z,33.13
2023-01-01T02:25:26.963Z,33.14
2023-01-01T02:27:53.356Z,33.15
2023-01-01T02:30:19.716Z,33.20
2023-01-01T02:32:46.108Z,33.20
2023-01-01T02:35:12.479Z,33.20
2023-01-01T02:37:38.883Z,33.17
2023-01-01T02:40:05.220Z,33.15
2023-01-01T02:42:31.611Z,33.17
2023-01-01T02:44:57.954Z,33.20
2023-01-01T02:47:24.361Z,33.19
2023-01-01T02:49:50.784Z,33.20
2023-01-01T02:52:17.171Z,33.20
2023-01-01T02:54:43.516Z,33.19
2023-01-01T02:57:09.912Z,33.23
2023-01-01T02:59:36.302Z,33.25
2023-01-01T03:02:02.795Z,33.24
2023-01-01T03:04:29.046Z,33.26
2023-01-01T03:06:55.465Z,33.24
2023-01-01T03:09:21.801Z,33.26
2023-01-01T03:11:48.191Z,33.26
2023-01-01T03:14:14.579Z,33.26
2023-01-01T03:16:40.967Z,33.28
2023-01-01T03:19:07.346Z,33.28
2023-01-01T03:21:33.733Z,33.27
2023-01-01T03:24:00.148Z,33.30
2023-01-01T03:26:26.573Z,33.28
2023-01-01T03:28:52.927Z,33.30
2023-01-01T03:31:19.340Z,33.32
2023-01-01T03:33:45.650Z,33.30
2023-01-01T03:36:12.051Z,33.33
2023-01-01T03:38:38.417Z,33.33
2023-01-01T03:41:04.820Z,33.33
2023-01-01T03:43:31.183Z,33.35
2023-01-01T03:45:57.592Z,33.37
2023-01-01T03:48:23.937Z,33.37
2023-01-01T03:50:50.357Z,33.38
2023-01-01T03:53:16.708Z,33.39
2023-01-01T03:55:43.123Z,33.37
2023-01-01T03:58:09.458Z,33.42
2023-01-01T04:00:37.065Z,33.44
2023-01-01T04:03:02.245Z,33.43
2023-01-01T04:05:28.609Z,33.46
2023-01-01T04:07:54.951Z,33.49
2023-01-01T04:10:21.383Z,33.45
2023-01-01T04:12:47.757Z,33.43
2023-01-01T04:15:14.134Z,33.42
2023-01-01T04:17:40.488Z,33.46
2023-01-01T04:20:06.939Z,33.47
2023-01-01T04:22:33.281Z,33.50
2023-01-01T04:24:59.664Z,33.49
2023-01-01T04:27:26.006Z,33.52
2023-01-01T04:29:52.395Z,33.51
2023-01-01T04:32:18.747Z,33.55
2023-01-01T04:34:45.128Z,33.52
2023-01-01T04:37:13.586Z,33.54
2023-01-01T04:39:40.920Z,33.52
2023-01-01T04:42:08.552Z,33.56
2023-01-01T04:44:33.705Z,33.60
2023-01-01T04:47:00.413Z,33.57
2023-01-01T04:49:26.469Z,33.55
2023-01-01T04:51:52.866Z,33.56
2023-01-01T04:54:19.220Z,33.63
2023-01-01T04:56:45.559Z,33.59
2023-01-01T04:59:11.962Z,33.59
2023-01-01T05:01:38.403Z,33.62
2023-01-01T05:04:04.698Z,33.60
2023-01-01T05:06:31.076Z,33.65
2023-01-01T05:08:57.462Z,33.66
2023-01-01T05:11:23.790Z,33.65
2023-01-01T05:13:50.148Z,33.65
2023-01-01T05:16:16.623Z,33.70
2023-01-01T05:18:42.902Z,33.68
2023-01-01T05:21:09.300Z,33.69
2023-01-01T05:23:36.863Z,33.69
2023-01-01T05:26:02.036Z,33.70
2023-01-01T05:28:28.409Z,33.71
2023-01-01T05:30:54.824Z,33.71
2023-01-01T05:33:21.175Z,33.72
2023-01-01T05:35:47.559Z,33.72
2023-01-01T05:38:13.899Z,33.72
2023-01-01T05:40:40.304Z,33.74
2023-01-01T05:43:06.666Z,33.75
2023-01-01T05:45:33.062Z,33.75
2023-01-01T05:47:59.400Z,33.77
2023-01-01T05:50:25.794Z,33.79
2023-01-01T05:52:52.126Z,33.79
2023-01-01T05:55:18.517Z,33.82
2023-01-01T05:57:44.855Z,33.78
2023-01-01T06:00:11.318Z,33.80
2023-01-01T06:02:37.716Z,33.77
2023-01-01T06:05:04.049Z,33.75
2023-01-01T06:07:30.432Z,33.78
2023-01-01T06:09:56.863Z,33.75
2023-01-01T06:12:23.188Z,33.75
2023-01-01T06:14:49.613Z,33.74
2023-01-01T06:17:15.983Z,33.68
2023-01-01T06:19:42.374Z,33.65
2023-01-01T06:22:08.750Z,33.66
2023-01-01T06:24:38.949Z,33.65
2023-01-01T06:27:01.486Z,33.66
2023-01-01T06:29:27.892Z,33.66
2023-01-01T06:31:54.240Z,33.68
2023-01-01T06:34:20.658Z,33.69
2023-01-01T06:36:48.681Z,33.68
2023-01-01T06:39:13.418Z,33.71
2023-01-01T06:41:39.766Z,33.71
2023-01-01T06:44:06.197Z,33.72
2023-01-01T06:46:32.608Z,33.74
2023-01-01T06:48:58.918Z,33.77
2023-01-01T06:51:25.259Z,33.66
2023-01-01T06:53:51.652Z,33.75
2023-01-01T06:56:18.212Z,33.78
2023-01-01T06:58:44.599Z,33.83
2023-01-01T07:01:11.024Z,33.85
2023-01-01T07:03:37.389Z,33.89
2023-01-01T07:06:03.680Z,33.83
2023-01-01T07:08:30.118Z,33.90
2023-01-01T07:10:56.462Z,33.88
2023-01-01T07:13:22.882Z,33.87
2023-01-01T07:15:49.255Z,33.87
2023-01-01T07:18:15.604Z,33.87
2023-01-01T07:20:41.971Z,33.87
2023-01-01T07:23:08.361Z,33.88
2023-01-01T07:25:34.697Z,33.85
2023-01-01T07:28:01.088Z,33.83
2023-01-01T07:30:27.426Z,33.84
2023-01-01T07:32:53.826Z,33.86
2023-01-01T07:35:20.173Z,33.84
2023-01-01T07:37:48.968Z,33.83
2023-01-01T07:40:15.314Z,33.89
2023-01-01T07:42:41.788Z,33.88
2023-01-01T07:45:08.097Z,33.88
2023-01-01T07:47:34.537Z,33.88
2023-01-01T07:50:00.887Z,33.88
2023-01-01T07:52:27.295Z,33.87
2023-01-01T07:54:53.652Z,33.89
2023-01-01T07:57:20.056Z,33.89
2023-01-01T07:59:46.396Z,33.89
2023-01-01T08:02:14.137Z,33.86
2023-01-01T08:04:39.157Z,33.90
2023-01-01T08:07:05.556Z,33.86
2023-01-01T08:09:31.920Z,33.89
2023-01-01T08:11:58.304Z,33.90
2023-01-01T08:14:24.643Z,33.92
2023-01-01T08:16:51.173Z,33.87
2023-01-01T08:19:17.700Z,33.94
2023-01-01T08:21:44.129Z,33.92
2023-01-01T08:24:10.485Z,33.94
2023-01-01T08:26:36.852Z,33.94
2023-01-01T08:29:03.218Z,33.96
2023-01-01T08:31:29.666Z,33.96
2023-01-01T08:33:56.013Z,33.94
2023-01-01T08:36:22.424Z,33.93
2023-01-01T08:38:48.793Z,33.94
2023-01-01T08:41:15.196Z,33.94
2023-01-01T08:43:41.743Z,33.94
2023-01-01T08:46:08.234Z,33.95
2023-01-01T08:48:34.506Z,33.95
2023-01-01T08:51:00.883Z,33.94
2023-01-01T08:53:27.254Z,33.96
2023-01-01T08:55:53.635Z,33.96
2023-01-01T08:58:19.982Z,33.97
2023-01-01T09:00:46.405Z,33.96
2023-01-01T09:03:12.816Z,33.95
2023-01-01T09:05:39.126Z,33.96
2023-01-01T09:08:05.460Z,33.97
2023-01-01T09:10:33.599Z,33.97
2023-01-01T09:12:58.228Z,33.97
2023-01-01T09:15:24.615Z,33.98
2023-01-01T09:17:50.990Z,33.96
2023-01-01T09:20:17.389Z,33.97
2023-01-01T09:22:43.739Z,33.97
2023-01-01T09:25:10.120Z,33.96
2023-01-01T09:27:36.473Z,33.93
2023-01-01T09:30:02.844Z,33.94
2023-01-01T09:32:29.180Z,33.95
2023-01-01T09:34:55.580Z,33.95
2023-01-01T09:37:21.922Z,33.96
2023-01-01T09:39:48.308Z,33.94
2023-01-01T09:42:14.644Z,33.95
2023-01-01T09:44:41.030Z,33.93
2023-01-01T09:47:07.372Z,33.94
2023-01-01T09:49:35.505Z,33.96
2023-01-01T09:52:00.136Z,33.94
2023-01-01T09:54:26.520Z,33.95
2023-01-01T09:56:52.872Z,33.93
2023-01-01T09:59:19.262Z,33.92
2023-01-01T10:01:45.726Z,33.92
2023-01-01T10:04:12.074Z,33.92
2023-01-01T10:06:38.402Z,33.63
2023-01-01T10:09:04.798Z,33.30
2023-01-01T10:11:31.179Z,33.11
2023-01-01T10:13:57.555Z,33.02
2023-01-01T10:16:24.972Z,32.85
2023-01-01T10:18:50.285Z,32.75
2023-01-01T10:21:16.667Z,32.61
2023-01-01T10:23:43.047Z,32.28
2023-01-01T10:26:10.832Z,32.11
2023-01-01T10:28:35.807Z,32.13
2023-01-01T10:31:02.159Z,32.18
2023-01-01T10:33:28.572Z,32.23
2023-01-01T10:35:54.909Z,31.85
2023-01-01T10:38:21.367Z,31.99
2023-01-01T10:40:47.717Z,31.94
2023-01-01T10:43:14.110Z,31.95
2023-01-01T10:45:40.476Z,31.78
2023-01-01T10:48:06.861Z,31.74
2023-01-01T10:50:33.229Z,31.64
2023-01-01T10:52:59.612Z,31.57
2023-01-01T10:55:25.982Z,31.42
2023-01-01T10:57:52.442Z,31.42
2023-01-01T11:00:18.780Z,31.33
2023-01-01T11:02:45.292Z,31.22
2023-01-01T11:05:16.299Z,31.21
2023-01-01T11:07:37.928Z,31.14
2023-01-01T11:10:04.987Z,31.04
2023-01-01T11:13:03.482Z,30.96
2023-01-01T11:14:57.038Z,30.76
2023-01-01T11:17:23.455Z,30.78
2023-01-01T11:19:51.971Z,30.71
2023-01-01T11:22:16.219Z,30.59
2023-01-01T11:24:42.591Z,30.60
2023-01-01T11:27:08.977Z,30.43
2023-01-01T11:29:35.363Z,30.40
2023-01-01T11:32:01.774Z,30.30
2023-01-01T11:34:28.129Z,30.24
2023-01-01T11:36:54.549Z,30.15
2023-01-01T11:39:20.919Z,30.11
2023-01-01T11:41:47.273Z,29.99
2023-01-01T11:44:13.648Z,29.90
2023-01-01T11:46:40.050Z,29.78
2023-01-01T11:49:06.379Z,29.69
2023-01-01T11:51:32.819Z,29.57
2023-01-01T11:53:59.116Z,29.49
2023-01-01T11:56:25.549Z,29.31
2023-01-01T11:58:51.899Z,29.16
2023-01-01T12:01:18.338Z,29.11
2023-01-01T12:03:44.681Z,29.02
2023-01-01T12:06:11.032Z,28.90
2023-01-01T12:08:37.383Z,28.74
2023-01-01T12:11:03.755Z,28.47
2023-01-01T12:13:30.126Z,28.32
2023-01-01T12:15:56.569Z,28.15
2023-01-01T12:18:22.855Z,27.87
2023-01-01T12:20:49.286Z,27.73
2023-01-01T12:23:15.671Z,27.73
2023-01-01T12:25:42.041Z,27.57
2023-01-01T12:28:08.395Z,27.56
2023-01-01T12:30:34.798Z,27.52
2023-01-01T12:33:07.338Z,27.54
2023-01-01T12:35:27.587Z,27.37
2023-01-01T12:37:53.924Z,27.37
2023-01-01T12:40:24.487Z,27.29
2023-01-01T12:42:46.721Z,27.25
2023-01-01T12:45:13.101Z,27.08
2023-01-01T12:47:39.452Z,27.04
2023-01-01T12:50:05.886Z,26.92
2023-01-01T12:52:32.285Z,26.84
2023-01-01T12:54:58.731Z,26.73
2023-01-01T12:57:25.069Z,26.68
2023-01-01T12:59:51.451Z,26.77
2023-01-01T13:02:17.971Z,26.66
2023-01-01T13:04:44.198Z,26.62
2023-01-01T13:07:10.545Z,26.63
2023-01-01T13:09:36.923Z,26.60
2023-01-01T13:12:03.296Z,26.47
2023-01-01T13:14:29.680Z,26.54
2023-01-01T13:16:56.021Z,26.47
2023-01-01T13:19:22.436Z,26.49
2023-01-01T13:21:48.771Z,26.48
2023-01-01T13:24:15.155Z,26.47
2023-01-01T13:26:41.503Z,26.37
2023-01-01T13:29:07.913Z,26.30
2023-01-01T13:31:34.282Z,26.31
2023-01-01T13:34:00.677Z,26.31
2023-01-01T13:36:27.017Z,26.22
2023-01-01T13:38:53.401Z,26.25
2023-01-01T13:41:19.746Z,26.28
2023-01-01T13:43:46.119Z,26.21
2023-01-01T13:46:14.202Z,26.22
2023-01-01T13:48:38.868Z,26.24
2023-01-01T13:51:05.240Z,26.21
2023-01-01T13:53:31.633Z,26.22
2023-01-01T13:55:57.996Z,26.15
2023-01-01T13:58:24.362Z,26.21
2023-01-01T14:00:50.741Z,26.16
2023-01-01T14:03:17.166Z,26.15
2023-01-01T14:05:43.498Z,26.13
2023-01-01T14:08:13.229Z,26.18
2023-01-01T14:10:36.236Z,26.33
2023-01-01T14:13:02.622Z,26.48
2023-01-01T14:15:28.999Z,26.56
2023-01-01T14:17:55.399Z,26.64
2023-01-01T14:20:21.731Z,26.68
2023-01-01T14:22:48.116Z,26.73
2023-01-01T14:25:14.489Z,26.76
2023-01-01T14:27:40.876Z,26.74
2023-01-01T14:30:07.250Z,26.81
2023-01-01T14:32:33.630Z,26.86
2023-01-01T14:35:00.000Z,26.89
2023-01-01T14:37:26.386Z,26.86
2023-01-01T14:39:52.742Z,26.78
2023-01-01T14:42:19.141Z,26.86
2023-01-01T14:44:45.469Z,26.87
2023-01-01T14:47:11.886Z,26.89
2023-01-01T14:49:38.234Z,26.85
2023-01-01T14:52:04.615Z,26.85
2023-01-01T14:54:30.983Z,26.92
2023-01-01T14:56:57.391Z,26.84
2023-01-01T14:59:23.744Z,26.92
2023-01-01T15:01:50.279Z,26.92
2023-01-01T15:04:16.477Z,27.03
2023-01-01T15:06:42.855Z,26.99
2023-01-01T15:09:09.238Z,27.08
2023-01-01T15:11:35.657Z,27.07
2023-01-01T15:14:02.021Z,27.08
2023-01-01T15:16:28.496Z,27.15
2023-01-01T15:18:54.765Z,27.21
2023-01-01T15:21:21.145Z,27.23
2023-01-01T15:23:47.523Z,27.28
2023-01-01T15:26:13.928Z,27.33
2023-01-01T15:28:40.296Z,27.39
2023-01-01T15:31:06.681Z,27.41
2023-01-01T15:33:33.029Z,27.54
2023-01-01T15:35:59.411Z,27.61
2023-01-01T15:38:25.823Z,27.62
2023-01-01T15:40:53.841Z,27.78
2023-01-01T15:43:18.555Z,27.83
2023-01-01T15:45:44.968Z,27.82
2023-01-01T15:48:11.314Z,27.95
2023-01-01T15:50:37.658Z,28.05
2023-01-01T15:53:04.046Z,28.12
2023-01-01T15:55:30.384Z,28.15
2023-01-01T15:57:56.763Z,28.24
2023-01-01T16:00:23.116Z,28.25
2023-01-01T16:02:52.004Z,28.36
2023-01-01T16:05:18.092Z,28.42
2023-01-01T16:07:44.528Z,28.48
2023-01-01T16:10:10.829Z,28.51
2023-01-01T16:12:37.211Z,28.57
2023-01-01T16:15:03.557Z,28.60
2023-01-01T16:17:29.927Z,28.67
2023-01-01T16:19:56.317Z,28.72
2023-01-01T16:22:22.697Z,28.76
2023-01-01T16:24:49.028Z,28.82
2023-01-01T16:27:15.449Z,28.89
2023-01-01T16:29:47.296Z,28.89
2023-01-01T16:32:10.664Z,28.95
2023-01-01T16:34:37.034Z,29.02
2023-01-01T16:37:03.449Z,29.07
2023-01-01T16:39:29.791Z,29.09
2023-01-01T16:41:56.226Z,29.08
2023-01-01T16:44:22.564Z,29.18
2023-01-01T16:46:48.987Z,29.22
2023-01-01T16:49:15.328Z,29.26
2023-01-01T16:51:44.000Z,29.33
2023-01-01T16:54:08.077Z,29.38
2023-01-01T16:56:34.506Z,29.41
2023-01-01T16:59:03.591Z,29.44
2023-01-01T17:01:27.412Z,29.50
2023-01-01T17:03:53.658Z,29.55
2023-01-01T17:06:20.042Z,29.53
2023-01-01T17:08:46.415Z,29.58
2023-01-01T17:11:12.776Z,29.60
2023-01-01T17:13:40.697Z,29.51
2023-01-01T17:16:05.631Z,29.68
2023-01-01T17:19:14.032Z,29.70
2023-01-01T17:20:58.325Z,29.66
2023-01-01T17:26:09.987Z,29.76
2023-01-01T17:28:36.344Z,29.82
2023-01-01T17:31:02.779Z,29.89
2023-01-01T17:33:29.114Z,29.82
2023-01-01T17:35:55.515Z,29.80
2023-01-01T17:38:21.853Z,29.79
2023-01-01T17:40:48.263Z,29.81
2023-01-01T17:43:14.608Z,29.88
2023-01-01T17:45:41.044Z,29.89
2023-01-01T17:48:07.404Z,29.95
2023-01-01T17:50:33.798Z,29.95
2023-01-01T17:53:00.177Z,30.02
2023-01-01T17:55:26.562Z,30.16
2023-01-01T17:57:52.949Z,30.21
2023-01-01T18:00:19.350Z,30.17
2023-01-01T18:02:45.926Z,30.23
2023-01-01T18:05:12.117Z,30.16
2023-01-01T18:07:38.456Z,30.25
2023-01-01T18:10:04.847Z,30.24
2023-01-01T18:12:31.200Z,30.33
2023-01-01T18:14:57.593Z,30.36
2023-01-01T18:17:23.988Z,30.42
2023-01-01T18:19:50.385Z,30.43
2023-01-01T18:22:16.782Z,30.59
2023-01-01T18:24:43.202Z,30.62
2023-01-01T18:27:09.566Z,30.69
2023-01-01T18:29:35.956Z,30.68
2023-01-01T18:32:02.338Z,30.73
2023-01-01T18:34:28.741Z,30.74
2023-01-01T18:36:56.300Z,30.79
2023-01-01T18:39:21.525Z,30.84
2023-01-01T18:41:47.887Z,30.89
2023-01-01T18:44:14.315Z,30.85
2023-01-01T18:46:40.782Z,30.93
2023-01-01T18:49:07.143Z,30.88
2023-01-01T18:51:33.481Z,30.95
2023-01-01T18:53:59.874Z,30.96
2023-01-01T18:56:26.233Z,30.95
2023-01-01T18:58:52.668Z,30.93
2023-01-01T19:01:19.066Z,31.08
2023-01-01T19:03:45.369Z,30.96
2023-01-01T19:06:11.724Z,31.01
2023-01-01T19:08:38.169Z,31.04
2023-01-01T19:11:04.534Z,31.04
2023-01-01T19:13:30.998Z,31.04
2023-01-01T19:15:57.390Z,31.14
2023-01-01T19:18:23.763Z,31.14
2023-01-01T19:20:50.118Z,31.24
2023-01-01T19:23:16.505Z,31.22
2023-01-01T19:25:42.925Z,31.24
2023-01-01T19:28:09.324Z,31.27
2023-01-01T19:30:35.677Z,31.30
2023-01-01T19:33:02.109Z,31.31
2023-01-01T19:35:28.453Z,31.36
2023-01-01T19:37:54.865Z,31.35
2023-01-01T19:40:21.217Z,31.40
2023-01-01T19:42:47.654Z,31.36
2023-01-01T19:45:14.055Z,31.37
2023-01-01T19:47:40.444Z,31.48
2023-01-01T19:50:06.807Z,31.51
2023-01-01T19:52:33.191Z,31.45
2023-01-01T19:54:59.555Z,31.53
2023-01-01T19:57:25.993Z,31.52
2023-01-01T19:59:52.416Z,31.53
2023-01-01T20:02:44.845Z,31.58
2023-01-01T20:04:45.227Z,31.63
2023-01-01T20:07:11.584Z,31.69
2023-01-01T20:09:37.931Z,31.66
2023-01-01T20:12:04.373Z,31.68
2023-01-01T20:14:30.715Z,31.64
2023-01-01T20:16:57.145Z,31.69
2023-01-01T20:19:23.496Z,31.70
2023-01-01T20:21:49.895Z,31.72
2023-01-01T20:24:16.272Z,31.72
2023-01-01T20:26:42.675Z,31.72
2023-01-01T20:29:09.032Z,31.82
2023-01-01T20:31:35.452Z,31.79
2023-01-01T20:34:01.767Z,31.83
2023-01-01T20:36:28.167Z,31.82
2023-01-01T20:38:54.553Z,31.83
2023-01-01T20:41:20.933Z,31.78
2023-01-01T20:43:47.317Z,31.76
2023-01-01T20:46:13.748Z,31.85
2023-01-01T20:48:40.068Z,31.79
2023-01-01T20:51:06.458Z,31.80
2023-01-01T20:53:32.808Z,31.87
2023-01-01T20:55:59.218Z,31.89
2023-01-01T20:58:25.610Z,31.88
2023-01-01T21:00:52.072Z,31.99
2023-01-01T21:03:18.463Z,31.97
2023-01-01T21:05:44.810Z,31.94
2023-01-01T21:08:11.153Z,31.91
2023-01-01T21:10:37.575Z,32.03
2023-01-01T21:13:03.917Z,32.01
2023-01-01T21:15:30.352Z,32.09
2023-01-01T21:17:56.704Z,32.01
2023-01-01T21:20:23.137Z,32.06
2023-01-01T21:22:49.504Z,32.08
2023-01-01T21:25:49.214Z,32.08
2023-01-01T21:27:42.280Z,32.12
2023-01-01T21:30:08.668Z,32.14
2023-01-01T21:32:35.065Z,32.16
2023-01-01T21:35:01.461Z,32.20
2023-01-01T21:37:27.820Z,32.20
2023-01-01T21:39:54.260Z,32.23
2023-01-01T21:42:20.640Z,32.25
2023-01-01T21:44:47.026Z,32.20
2023-01-01T21:47:13.417Z,32.29
2023-01-01T21:49:39.800Z,32.27
2023-01-01T21:52:06.143Z,32.32
2023-01-01T21:54:32.604Z,32.30
2023-01-01T21:56:58.962Z,32.30
2023-01-01T21:59:25.364Z,32.34
2023-01-01T22:01:51.851Z,32.35
2023-01-01T22:04:18.174Z,32.43
2023-01-01T22:06:44.522Z,32.44
2023-01-01T22:09:10.923Z,32.41
2023-01-01T22:11:37.263Z,32.43
2023-01-01T22:14:03.664Z,32.47
2023-01-01T22:16:30.144Z,32.52
2023-01-01T22:18:56.458Z,32.53
2023-01-01T22:21:22.824Z,32.53
2023-01-01T22:23:49.206Z,32.56
2023-01-01T22:26:15.554Z,32.59
2023-01-01T22:28:42.440Z,32.60
2023-01-01T22:31:08.830Z,32.61
2023-01-01T22:33:35.178Z,32.62
2023-01-01T22:36:01.566Z,32.62
2023-01-01T22:38:27.952Z,32.66
2023-01-01T22:40:54.290Z,32.67
2023-01-01T22:43:20.693Z,32.66
2023-01-01T22:45:47.076Z,32.68
2023-01-01T22:48:13.456Z,32.70
2023-01-01T22:50:39.799Z,32.71
2023-01-01T22:53:06.196Z,32.71
2023-01-01T22:55:32.542Z,32.74
2023-01-01T22:57:58.983Z,32.75
2023-01-01T23:00:25.321Z,32.76
2023-01-01T23:02:51.796Z,32.77
2023-01-01T23:05:18.086Z,32.79
2023-01-01T23:07:44.520Z,32.80
2023-01-01T23:10:10.887Z,32.84
2023-01-01T23:12:37.280Z,32.81
2023-01-01T23:15:03.642Z,32.84
2023-01-01T23:17:30.065Z,32.84
2023-01-01T23:19:56.437Z,32.88
2023-01-01T23:22:22.831Z,32.91
2023-01-01T23:24:49.220Z,32.91
2023-01-01T23:27:15.601Z,32.93
2023-01-01T23:29:42.022Z,32.95
2023-01-01T23:32:08.407Z,32.97
2023-01-01T23:34:34.772Z,33.01
2023-01-01T23:37:01.196Z,32.97
2023-01-01T23:39:27.544Z,32.99
2023-01-01T23:41:53.961Z,33.04
2023-01-01T23:44:20.352Z,33.04
2023-01-01T23:46:46.837Z,33.09
2023-01-01T23:49:13.113Z,33.07
2023-01-01T23:51:39.544Z,33.07
2023-01-01T23:54:05.902Z,33.02
2023-01-01T23:56:32.332Z,33.03
2023-01-01T23:58:58.687Z,33.05
